sensor_id;sensor_type;location;lat;lon;timestamp;P1;durP1;ratioP1;P2;durP2;ratioP2
22490;SDS011;11412;50.802;4.350;2023-08-21T00:01:41;1.58;;;1.13;;
22490;SDS011;11412;50.802;4.350;2023-08-21T00:04:07;3.08;;;1.35;;
22490;SDS011;11412;50.802;4.350;2023-08-21T00:06:32;2.17;;;1.20;;
22490;SDS011;11412;50.802;4.350;2023-08-21T00:08:58;4.43;;;1.30;;
22490;SDS011;11412;50.802;4.350;2023-08-21T00:11:25;3.50;;;1.30;;
22490;SDS011;11412;50.802;4.350;2023-08-21T00:13:51;2.53;;;1.20;;
22490;SDS011;11412;50.802;4.350;2023-08-21T00:16:16;2.90;;;1.30;;
22490;SDS011;11412;50.802;4.350;2023-08-21T00:18:42;5.05;;;1.35;;
22490;SDS011;11412;50.802;4.350;2023-08-21T00:21:09;4.55;;;1.35;;
22490;SDS011;11412;50.802;4.350;2023-08-21T00:23:34;2.78;;;1.15;;
22490;SDS011;11412;50.802;4.350;2023-08-21T00:26:00;2.83;;;1.38;;
22490;SDS011;11412;50.802;4.350;2023-08-21T00:28:26;3.42;;;1.65;;
22490;SDS011;11412;50.802;4.350;2023-08-21T00:30:52;4.80;;;1.30;;
22490;SDS011;11412;50.802;4.350;2023-08-21T00:33:25;4.13;;;1.33;;
22490;SDS011;11412;50.802;4.350;2023-08-21T00:35:51;4.25;;;1.10;;
22490;SDS011;11412;50.802;4.350;2023-08-21T00:38:17;3.28;;;1.38;;
22490;SDS011;11412;50.802;4.350;2023-08-21T00:40:42;1.70;;;1.00;;
22490;SDS011;11412;50.802;4.350;2023-08-21T00:43:08;4.55;;;1.50;;
22490;SDS011;11412;50.802;4.350;2023-08-21T00:45:34;3.95;;;1.33;;
22490;SDS011;11412;50.802;4.350;2023-08-21T00:48:00;5.72;;;1.92;;
22490;SDS011;11412;50.802;4.350;2023-08-21T00:50:26;3.80;;;1.38;;
22490;SDS011;11412;50.802;4.350;2023-08-21T00:52:52;2.97;;;1.38;;
22490;SDS011;11412;50.802;4.350;2023-08-21T00:55:18;1.40;;;0.95;;
22490;SDS011;11412;50.802;4.350;2023-08-21T00:57:43;2.45;;;1.35;;
22490;SDS011;11412;50.802;4.350;2023-08-21T01:00:11;2.85;;;1.42;;
22490;SDS011;11412;50.802;4.350;2023-08-21T01:02:37;3.10;;;1.27;;
22490;SDS011;11412;50.802;4.350;2023-08-21T01:05:03;4.55;;;1.70;;
22490;SDS011;11412;50.802;4.350;2023-08-21T01:07:31;3.38;;;1.58;;
22490;SDS011;11412;50.802;4.350;2023-08-21T01:10:06;3.33;;;1.33;;
22490;SDS011;11412;50.802;4.350;2023-08-21T01:15:40;5.88;;;1.50;;
22490;SDS011;11412;50.802;4.350;2023-08-21T01:18:09;5.43;;;1.33;;
22490;SDS011;11412;50.802;4.350;2023-08-21T01:20:35;3.47;;;1.85;;
22490;SDS011;11412;50.802;4.350;2023-08-21T01:23:04;3.50;;;1.48;;
22490;SDS011;11412;50.802;4.350;2023-08-21T01:25:31;2.25;;;1.15;;
22490;SDS011;11412;50.802;4.350;2023-08-21T01:27:57;5.10;;;1.73;;
22490;SDS011;11412;50.802;4.350;2023-08-21T01:30:23;1.77;;;1.30;;
22490;SDS011;11412;50.802;4.350;2023-08-21T01:33:22;6.75;;;1.50;;
22490;SDS011;11412;50.802;4.350;2023-08-21T01:35:41;2.15;;;1.35;;
22490;SDS011;11412;50.802;4.350;2023-08-21T01:38:07;5.43;;;2.10;;
22490;SDS011;11412;50.802;4.350;2023-08-21T01:40:33;2.35;;;1.70;;
22490;SDS011;11412;50.802;4.350;2023-08-21T01:42:59;4.53;;;1.52;;
22490;SDS011;11412;50.802;4.350;2023-08-21T01:45:24;4.82;;;2.05;;
22490;SDS011;11412;50.802;4.350;2023-08-21T01:47:51;7.43;;;1.73;;
22490;SDS011;11412;50.802;4.350;2023-08-21T01:50:16;6.25;;;1.75;;
22490;SDS011;11412;50.802;4.350;2023-08-21T01:52:42;2.95;;;1.40;;
22490;SDS011;11412;50.802;4.350;2023-08-21T01:55:08;4.47;;;1.33;;
22490;SDS011;11412;50.802;4.350;2023-08-21T01:57:35;3.40;;;1.35;;
22490;SDS011;11412;50.802;4.350;2023-08-21T02:00:01;4.13;;;1.70;;
22490;SDS011;11412;50.802;4.350;2023-08-21T02:02:29;4.57;;;1.25;;
22490;SDS011;11412;50.802;4.350;2023-08-21T02:04:55;4.15;;;1.33;;
22490;SDS011;11412;50.802;4.350;2023-08-21T02:07:21;2.83;;;1.73;;
22490;SDS011;11412;50.802;4.350;2023-08-21T02:09:47;3.53;;;1.45;;
22490;SDS011;11412;50.802;4.350;2023-08-21T02:12:12;7.38;;;1.67;;
22490;SDS011;11412;50.802;4.350;2023-08-21T02:14:38;2.58;;;1.55;;
22490;SDS011;11412;50.802;4.350;2023-08-21T02:17:03;6.00;;;1.45;;
22490;SDS011;11412;50.802;4.350;2023-08-21T02:19:30;6.88;;;1.70;;
22490;SDS011;11412;50.802;4.350;2023-08-21T02:21:56;2.58;;;1.40;;
22490;SDS011;11412;50.802;4.350;2023-08-21T02:24:22;3.33;;;1.55;;
22490;SDS011;11412;50.802;4.350;2023-08-21T02:26:47;3.47;;;1.35;;
22490;SDS011;11412;50.802;4.350;2023-08-21T02:29:13;4.20;;;1.45;;
22490;SDS011;11412;50.802;4.350;2023-08-21T02:31:38;6.07;;;1.90;;
22490;SDS011;11412;50.802;4.350;2023-08-21T02:34:04;5.90;;;2.15;;
22490;SDS011;11412;50.802;4.350;2023-08-21T02:36:30;5.75;;;1.50;;
22490;SDS011;11412;50.802;4.350;2023-08-21T02:38:56;4.00;;;1.75;;
22490;SDS011;11412;50.802;4.350;2023-08-21T02:41:22;2.92;;;1.55;;
22490;SDS011;11412;50.802;4.350;2023-08-21T02:43:48;4.55;;;1.40;;
22490;SDS011;11412;50.802;4.350;2023-08-21T02:46:13;5.18;;;1.50;;
22490;SDS011;11412;50.802;4.350;2023-08-21T02:48:39;2.42;;;1.27;;
22490;SDS011;11412;50.802;4.350;2023-08-21T02:51:05;4.10;;;1.70;;
22490;SDS011;11412;50.802;4.350;2023-08-21T02:53:31;5.95;;;1.63;;
22490;SDS011;11412;50.802;4.350;2023-08-21T02:55:56;3.67;;;1.85;;
22490;SDS011;11412;50.802;4.350;2023-08-21T02:58:22;3.00;;;1.52;;
22490;SDS011;11412;50.802;4.350;2023-08-21T03:00:47;4.35;;;1.80;;
22490;SDS011;11412;50.802;4.350;2023-08-21T03:03:13;4.63;;;1.42;;
22490;SDS011;11412;50.802;4.350;2023-08-21T03:05:39;4.72;;;2.10;;
22490;SDS011;11412;50.802;4.350;2023-08-21T03:08:05;9.85;;;1.80;;
22490;SDS011;11412;50.802;4.350;2023-08-21T03:10:30;5.30;;;1.67;;
22490;SDS011;11412;50.802;4.350;2023-08-21T03:12:58;4.68;;;1.58;;
22490;SDS011;11412;50.802;4.350;2023-08-21T03:15:24;2.83;;;1.70;;
22490;SDS011;11412;50.802;4.350;2023-08-21T03:17:50;5.55;;;1.92;;
22490;SDS011;11412;50.802;4.350;2023-08-21T03:20:16;4.95;;;1.45;;
22490;SDS011;11412;50.802;4.350;2023-08-21T03:22:43;2.33;;;1.45;;
22490;SDS011;11412;50.802;4.350;2023-08-21T03:25:09;3.67;;;1.45;;
22490;SDS011;11412;50.802;4.350;2023-08-21T03:27:35;6.03;;;1.80;;
22490;SDS011;11412;50.802;4.350;2023-08-21T03:30:07;7.97;;;1.75;;
22490;SDS011;11412;50.802;4.350;2023-08-21T03:32:33;4.22;;;1.60;;
22490;SDS011;11412;50.802;4.350;2023-08-21T03:34:59;7.45;;;1.70;;
22490;SDS011;11412;50.802;4.350;2023-08-21T03:37:25;6.50;;;1.85;;
22490;SDS011;11412;50.802;4.350;2023-08-21T03:39:51;4.47;;;1.67;;
22490;SDS011;11412;50.802;4.350;2023-08-21T03:42:16;5.82;;;1.73;;
22490;SDS011;11412;50.802;4.350;2023-08-21T03:44:42;5.38;;;1.83;;
22490;SDS011;11412;50.802;4.350;2023-08-21T03:47:08;5.10;;;1.55;;
22490;SDS011;11412;50.802;4.350;2023-08-21T03:49:33;2.78;;;1.60;;
22490;SDS011;11412;50.802;4.350;2023-08-21T03:51:59;4.30;;;2.05;;
22490;SDS011;11412;50.802;4.350;2023-08-21T03:54:25;2.90;;;1.30;;
22490;SDS011;11412;50.802;4.350;2023-08-21T03:56:51;4.07;;;2.03;;
22490;SDS011;11412;50.802;4.350;2023-08-21T03:59:16;3.83;;;1.67;;
22490;SDS011;11412;50.802;4.350;2023-08-21T04:01:42;4.75;;;2.08;;
22490;SDS011;11412;50.802;4.350;2023-08-21T04:04:07;3.55;;;1.90;;
22490;SDS011;11412;50.802;4.350;2023-08-21T04:06:33;4.57;;;1.73;;
22490;SDS011;11412;50.802;4.350;2023-08-21T04:08:59;5.97;;;1.75;;
22490;SDS011;11412;50.802;4.350;2023-08-21T04:11:25;8.15;;;1.55;;
22490;SDS011;11412;50.802;4.350;2023-08-21T04:13:50;4.78;;;1.70;;
22490;SDS011;11412;50.802;4.350;2023-08-21T04:16:16;5.22;;;1.60;;
22490;SDS011;11412;50.802;4.350;2023-08-21T04:18:43;6.22;;;2.05;;
22490;SDS011;11412;50.802;4.350;2023-08-21T04:21:08;4.10;;;1.83;;
22490;SDS011;11412;50.802;4.350;2023-08-21T04:23:35;2.20;;;1.40;;
22490;SDS011;11412;50.802;4.350;2023-08-21T04:26:01;5.18;;;1.65;;
22490;SDS011;11412;50.802;4.350;2023-08-21T04:28:28;4.55;;;1.38;;
22490;SDS011;11412;50.802;4.350;2023-08-21T04:30:57;2.47;;;1.73;;
22490;SDS011;11412;50.802;4.350;2023-08-21T04:33:28;3.22;;;1.63;;
22490;SDS011;11412;50.802;4.350;2023-08-21T04:35:54;6.25;;;2.13;;
22490;SDS011;11412;50.802;4.350;2023-08-21T04:38:20;3.72;;;2.25;;
22490;SDS011;11412;50.802;4.350;2023-08-21T04:40:45;4.97;;;2.03;;
22490;SDS011;11412;50.802;4.350;2023-08-21T04:43:11;4.82;;;2.05;;
22490;SDS011;11412;50.802;4.350;2023-08-21T04:45:37;2.97;;;1.60;;
22490;SDS011;11412;50.802;4.350;2023-08-21T04:48:03;5.13;;;1.73;;
22490;SDS011;11412;50.802;4.350;2023-08-21T04:50:32;3.78;;;1.60;;
22490;SDS011;11412;50.802;4.350;2023-08-21T04:52:58;5.90;;;1.80;;
22490;SDS011;11412;50.802;4.350;2023-08-21T04:55:23;9.00;;;1.90;;
22490;SDS011;11412;50.802;4.350;2023-08-21T04:57:49;5.88;;;1.80;;
22490;SDS011;11412;50.802;4.350;2023-08-21T05:00:15;2.80;;;1.45;;
22490;SDS011;11412;50.802;4.350;2023-08-21T05:02:41;4.05;;;1.80;;
22490;SDS011;11412;50.802;4.350;2023-08-21T05:05:07;10.40;;;2.08;;
22490;SDS011;11412;50.802;4.350;2023-08-21T05:07:34;4.32;;;1.60;;
22490;SDS011;11412;50.802;4.350;2023-08-21T05:10:00;5.82;;;1.60;;
22490;SDS011;11412;50.802;4.350;2023-08-21T05:12:26;9.27;;;1.90;;
22490;SDS011;11412;50.802;4.350;2023-08-21T05:14:52;5.15;;;1.85;;
22490;SDS011;11412;50.802;4.350;2023-08-21T05:17:19;6.47;;;3.17;;
22490;SDS011;11412;50.802;4.350;2023-08-21T05:19:45;4.85;;;1.50;;
22490;SDS011;11412;50.802;4.350;2023-08-21T05:22:10;3.28;;;1.50;;
22490;SDS011;11412;50.802;4.350;2023-08-21T05:24:36;6.35;;;1.73;;
22490;SDS011;11412;50.802;4.350;2023-08-21T05:27:02;6.10;;;1.80;;
22490;SDS011;11412;50.802;4.350;2023-08-21T05:29:29;5.47;;;1.67;;
22490;SDS011;11412;50.802;4.350;2023-08-21T05:31:55;4.10;;;1.42;;
22490;SDS011;11412;50.802;4.350;2023-08-21T05:34:21;7.32;;;2.33;;
22490;SDS011;11412;50.802;4.350;2023-08-21T05:36:47;6.35;;;1.95;;
22490;SDS011;11412;50.802;4.350;2023-08-21T05:39:12;2.80;;;1.67;;
22490;SDS011;11412;50.802;4.350;2023-08-21T05:41:38;6.18;;;1.75;;
22490;SDS011;11412;50.802;4.350;2023-08-21T05:44:04;8.02;;;2.67;;
22490;SDS011;11412;50.802;4.350;2023-08-21T05:46:30;3.30;;;1.75;;
22490;SDS011;11412;50.802;4.350;2023-08-21T05:48:56;6.45;;;1.63;;
22490;SDS011;11412;50.802;4.350;2023-08-21T05:51:22;3.75;;;1.92;;
22490;SDS011;11412;50.802;4.350;2023-08-21T05:53:48;6.30;;;1.60;;
22490;SDS011;11412;50.802;4.350;2023-08-21T05:56:13;4.55;;;1.88;;
22490;SDS011;11412;50.802;4.350;2023-08-21T05:58:39;4.10;;;1.67;;
22490;SDS011;11412;50.802;4.350;2023-08-21T06:01:07;4.30;;;1.88;;
22490;SDS011;11412;50.802;4.350;2023-08-21T06:03:32;6.55;;;2.60;;
22490;SDS011;11412;50.802;4.350;2023-08-21T06:05:58;4.85;;;2.10;;
22490;SDS011;11412;50.802;4.350;2023-08-21T06:08:24;5.45;;;2.35;;
22490;SDS011;11412;50.802;4.350;2023-08-21T06:10:52;5.72;;;1.98;;
22490;SDS011;11412;50.802;4.350;2023-08-21T06:13:18;5.20;;;2.30;;
22490;SDS011;11412;50.802;4.350;2023-08-21T06:15:45;8.90;;;2.78;;
22490;SDS011;11412;50.802;4.350;2023-08-21T06:18:11;11.70;;;2.45;;
22490;SDS011;11412;50.802;4.350;2023-08-21T06:20:37;4.05;;;2.28;;
22490;SDS011;11412;50.802;4.350;2023-08-21T06:23:03;6.80;;;2.72;;
22490;SDS011;11412;50.802;4.350;2023-08-21T06:25:30;7.63;;;2.38;;
22490;SDS011;11412;50.802;4.350;2023-08-21T06:28:00;11.82;;;2.88;;
22490;SDS011;11412;50.802;4.350;2023-08-21T06:30:26;8.48;;;2.42;;
22490;SDS011;11412;50.802;4.350;2023-08-21T06:32:52;13.85;;;2.80;;
22490;SDS011;11412;50.802;4.350;2023-08-21T06:35:17;14.27;;;3.38;;
22490;SDS011;11412;50.802;4.350;2023-08-21T06:37:43;11.15;;;2.67;;
22490;SDS011;11412;50.802;4.350;2023-08-21T06:40:09;7.55;;;2.60;;
22490;SDS011;11412;50.802;4.350;2023-08-21T06:42:36;8.35;;;3.00;;
22490;SDS011;11412;50.802;4.350;2023-08-21T06:45:02;14.32;;;2.75;;
22490;SDS011;11412;50.802;4.350;2023-08-21T06:47:32;9.68;;;2.60;;
22490;SDS011;11412;50.802;4.350;2023-08-21T06:49:57;11.52;;;3.05;;
22490;SDS011;11412;50.802;4.350;2023-08-21T06:52:25;7.20;;;2.92;;
22490;SDS011;11412;50.802;4.350;2023-08-21T06:54:51;6.10;;;2.45;;
22490;SDS011;11412;50.802;4.350;2023-08-21T06:57:17;10.75;;;3.05;;
22490;SDS011;11412;50.802;4.350;2023-08-21T06:59:43;10.55;;;2.75;;
22490;SDS011;11412;50.802;4.350;2023-08-21T07:02:08;4.55;;;2.45;;
22490;SDS011;11412;50.802;4.350;2023-08-21T07:04:35;7.28;;;3.28;;
22490;SDS011;11412;50.802;4.350;2023-08-21T07:07:00;8.05;;;2.97;;
22490;SDS011;11412;50.802;4.350;2023-08-21T07:09:26;9.13;;;3.25;;
22490;SDS011;11412;50.802;4.350;2023-08-21T07:11:52;12.50;;;3.53;;
22490;SDS011;11412;50.802;4.350;2023-08-21T07:14:18;9.43;;;2.58;;
22490;SDS011;11412;50.802;4.350;2023-08-21T07:16:44;10.52;;;2.67;;
22490;SDS011;11412;50.802;4.350;2023-08-21T07:19:10;10.70;;;3.28;;
22490;SDS011;11412;50.802;4.350;2023-08-21T07:21:36;13.63;;;3.30;;
22490;SDS011;11412;50.802;4.350;2023-08-21T07:24:03;5.38;;;2.80;;
22490;SDS011;11412;50.802;4.350;2023-08-21T07:26:29;6.40;;;3.03;;
22490;SDS011;11412;50.802;4.350;2023-08-21T07:28:55;7.78;;;2.90;;
22490;SDS011;11412;50.802;4.350;2023-08-21T07:31:21;11.15;;;3.15;;
22490;SDS011;11412;50.802;4.350;2023-08-21T07:33:47;10.35;;;2.92;;
22490;SDS011;11412;50.802;4.350;2023-08-21T07:36:12;5.82;;;2.42;;
22490;SDS011;11412;50.802;4.350;2023-08-21T07:38:42;7.20;;;2.47;;
22490;SDS011;11412;50.802;4.350;2023-08-21T07:41:09;8.77;;;2.90;;
22490;SDS011;11412;50.802;4.350;2023-08-21T07:43:39;10.88;;;3.13;;
22490;SDS011;11412;50.802;4.350;2023-08-21T07:46:07;7.97;;;3.65;;
22490;SDS011;11412;50.802;4.350;2023-08-21T07:48:34;22.58;;;3.28;;
22490;SDS011;11412;50.802;4.350;2023-08-21T07:51:00;8.50;;;2.83;;
22490;SDS011;11412;50.802;4.350;2023-08-21T07:53:27;10.48;;;3.00;;
22490;SDS011;11412;50.802;4.350;2023-08-21T07:55:53;11.63;;;2.90;;
22490;SDS011;11412;50.802;4.350;2023-08-21T07:58:18;8.70;;;3.10;;
22490;SDS011;11412;50.802;4.350;2023-08-21T08:00:44;7.90;;;2.55;;
22490;SDS011;11412;50.802;4.350;2023-08-21T08:03:10;8.10;;;3.45;;
22490;SDS011;11412;50.802;4.350;2023-08-21T08:05:39;6.20;;;2.80;;
22490;SDS011;11412;50.802;4.350;2023-08-21T08:08:05;13.63;;;2.88;;
22490;SDS011;11412;50.802;4.350;2023-08-21T08:10:30;13.07;;;3.00;;
22490;SDS011;11412;50.802;4.350;2023-08-21T08:12:56;11.95;;;3.50;;
22490;SDS011;11412;50.802;4.350;2023-08-21T08:15:22;12.68;;;3.83;;
22490;SDS011;11412;50.802;4.350;2023-08-21T08:17:48;9.98;;;2.80;;
22490;SDS011;11412;50.802;4.350;2023-08-21T08:20:18;7.32;;;3.47;;
22490;SDS011;11412;50.802;4.350;2023-08-21T08:22:44;16.48;;;3.45;;
22490;SDS011;11412;50.802;4.350;2023-08-21T08:25:10;12.00;;;2.83;;
22490;SDS011;11412;50.802;4.350;2023-08-21T08:27:35;9.70;;;2.80;;
22490;SDS011;11412;50.802;4.350;2023-08-21T08:30:01;13.93;;;3.20;;
22490;SDS011;11412;50.802;4.350;2023-08-21T08:32:28;10.32;;;3.00;;
22490;SDS011;11412;50.802;4.350;2023-08-21T08:34:54;9.90;;;3.25;;
22490;SDS011;11412;50.802;4.350;2023-08-21T08:37:20;10.48;;;2.97;;
22490;SDS011;11412;50.802;4.350;2023-08-21T08:39:46;7.32;;;3.15;;
22490;SDS011;11412;50.802;4.350;2023-08-21T08:42:12;8.77;;;3.40;;
22490;SDS011;11412;50.802;4.350;2023-08-21T08:44:39;7.35;;;3.13;;
22490;SDS011;11412;50.802;4.350;2023-08-21T08:47:06;9.80;;;3.47;;
22490;SDS011;11412;50.802;4.350;2023-08-21T08:49:33;10.73;;;3.80;;
22490;SDS011;11412;50.802;4.350;2023-08-21T08:51:59;9.88;;;3.45;;
22490;SDS011;11412;50.802;4.350;2023-08-21T08:54:25;8.95;;;2.92;;
22490;SDS011;11412;50.802;4.350;2023-08-21T08:56:52;10.00;;;2.80;;
22490;SDS011;11412;50.802;4.350;2023-08-21T08:59:18;9.25;;;2.88;;
22490;SDS011;11412;50.802;4.350;2023-08-21T09:01:44;5.82;;;2.53;;
22490;SDS011;11412;50.802;4.350;2023-08-21T09:04:10;8.55;;;2.70;;
22490;SDS011;11412;50.802;4.350;2023-08-21T09:06:36;8.15;;;2.85;;
22490;SDS011;11412;50.802;4.350;2023-08-21T09:09:02;7.45;;;3.20;;
22490;SDS011;11412;50.802;4.350;2023-08-21T09:11:28;8.80;;;2.95;;
22490;SDS011;11412;50.802;4.350;2023-08-21T09:13:54;10.40;;;2.97;;
22490;SDS011;11412;50.802;4.350;2023-08-21T09:16:21;7.05;;;2.80;;
22490;SDS011;11412;50.802;4.350;2023-08-21T09:18:48;6.15;;;2.20;;
22490;SDS011;11412;50.802;4.350;2023-08-21T09:21:18;4.25;;;1.95;;
22490;SDS011;11412;50.802;4.350;2023-08-21T09:23:44;6.53;;;2.17;;
22490;SDS011;11412;50.802;4.350;2023-08-21T09:26:11;7.68;;;2.45;;
22490;SDS011;11412;50.802;4.350;2023-08-21T09:28:47;10.20;;;2.38;;
22490;SDS011;11412;50.802;4.350;2023-08-21T09:31:13;4.88;;;2.20;;
22490;SDS011;11412;50.802;4.350;2023-08-21T09:33:39;5.50;;;1.40;;
22490;SDS011;11412;50.802;4.350;2023-08-21T09:36:06;4.07;;;1.50;;
22490;SDS011;11412;50.802;4.350;2023-08-21T09:38:33;3.85;;;1.77;;
22490;SDS011;11412;50.802;4.350;2023-08-21T09:41:00;5.68;;;2.55;;
22490;SDS011;11412;50.802;4.350;2023-08-21T09:43:26;3.92;;;2.10;;
22490;SDS011;11412;50.802;4.350;2023-08-21T09:45:52;6.32;;;2.72;;
22490;SDS011;11412;50.802;4.350;2023-08-21T09:48:24;4.15;;;2.10;;
22490;SDS011;11412;50.802;4.350;2023-08-21T09:50:54;2.55;;;1.40;;
22490;SDS011;11412;50.802;4.350;2023-08-21T09:53:24;4.85;;;2.03;;
22490;SDS011;11412;50.802;4.350;2023-08-21T09:55:53;3.22;;;1.67;;
22490;SDS011;11412;50.802;4.350;2023-08-21T09:58:20;4.57;;;2.10;;
22490;SDS011;11412;50.802;4.350;2023-08-21T10:00:47;4.25;;;1.48;;
22490;SDS011;11412;50.802;4.350;2023-08-21T10:03:15;5.88;;;1.48;;
22490;SDS011;11412;50.802;4.350;2023-08-21T10:05:45;5.88;;;1.50;;
22490;SDS011;11412;50.802;4.350;2023-08-21T10:08:12;5.00;;;1.90;;
22490;SDS011;11412;50.802;4.350;2023-08-21T10:10:41;4.80;;;1.60;;
22490;SDS011;11412;50.802;4.350;2023-08-21T10:13:07;6.97;;;1.77;;
22490;SDS011;11412;50.802;4.350;2023-08-21T10:15:33;5.78;;;1.60;;
22490;SDS011;11412;50.802;4.350;2023-08-21T10:20:55;4.28;;;1.55;;
22490;SDS011;11412;50.802;4.350;2023-08-21T10:23:35;2.83;;;1.08;;
22490;SDS011;11412;50.802;4.350;2023-08-21T10:26:05;4.05;;;1.20;;
22490;SDS011;11412;50.802;4.350;2023-08-21T10:28:47;1.98;;;1.05;;
22490;SDS011;11412;50.802;4.350;2023-08-21T10:34:12;3.28;;;1.23;;
22490;SDS011;11412;50.802;4.350;2023-08-21T10:39:28;2.03;;;1.20;;
22490;SDS011;11412;50.802;4.350;2023-08-21T10:41:58;3.67;;;0.90;;
22490;SDS011;11412;50.802;4.350;2023-08-21T10:49:43;1.98;;;0.88;;
22490;SDS011;11412;50.802;4.350;2023-08-21T10:52:14;3.53;;;1.00;;
22490;SDS011;11412;50.802;4.350;2023-08-21T10:54:48;0.95;;;0.68;;
22490;SDS011;11412;50.802;4.350;2023-08-21T10:57:22;3.22;;;1.10;;
22490;SDS011;11412;50.802;4.350;2023-08-21T11:00:05;3.28;;;1.15;;
22490;SDS011;11412;50.802;4.350;2023-08-21T11:02:37;3.70;;;0.90;;
22490;SDS011;11412;50.802;4.350;2023-08-21T11:05:04;2.35;;;0.70;;
22490;SDS011;11412;50.802;4.350;2023-08-21T11:07:36;3.15;;;0.90;;
22490;SDS011;11412;50.802;4.350;2023-08-21T11:10:12;2.58;;;0.70;;
22490;SDS011;11412;50.802;4.350;2023-08-21T11:12:49;2.28;;;1.00;;
22490;SDS011;11412;50.802;4.350;2023-08-21T11:15:16;2.75;;;0.88;;
22490;SDS011;11412;50.802;4.350;2023-08-21T11:17:42;2.38;;;0.90;;
22490;SDS011;11412;50.802;4.350;2023-08-21T11:20:15;1.23;;;0.85;;
22490;SDS011;11412;50.802;4.350;2023-08-21T11:22:41;2.38;;;1.17;;
22490;SDS011;11412;50.802;4.350;2023-08-21T11:25:07;2.45;;;0.85;;
22490;SDS011;11412;50.802;4.350;2023-08-21T11:27:32;2.53;;;0.93;;
22490;SDS011;11412;50.802;4.350;2023-08-21T11:29:58;2.25;;;1.10;;
22490;SDS011;11412;50.802;4.350;2023-08-21T11:32:25;3.00;;;0.98;;
22490;SDS011;11412;50.802;4.350;2023-08-21T11:34:52;0.95;;;0.73;;
22490;SDS011;11412;50.802;4.350;2023-08-21T11:37:23;3.25;;;1.00;;
22490;SDS011;11412;50.802;4.350;2023-08-21T11:39:51;2.63;;;1.15;;
22490;SDS011;11412;50.802;4.350;2023-08-21T11:42:17;1.35;;;0.82;;
22490;SDS011;11412;50.802;4.350;2023-08-21T11:44:49;1.02;;;0.88;;
22490;SDS011;11412;50.802;4.350;2023-08-21T11:47:16;3.00;;;1.27;;
22490;SDS011;11412;50.802;4.350;2023-08-21T11:49:44;2.45;;;0.80;;
22490;SDS011;11412;50.802;4.350;2023-08-21T11:52:13;2.80;;;1.20;;
22490;SDS011;11412;50.802;4.350;2023-08-21T11:54:40;3.05;;;1.30;;
22490;SDS011;11412;50.802;4.350;2023-08-21T11:57:12;1.25;;;0.82;;
22490;SDS011;11412;50.802;4.350;2023-08-21T11:59:38;1.88;;;0.85;;
22490;SDS011;11412;50.802;4.350;2023-08-21T12:02:14;2.47;;;1.10;;
22490;SDS011;11412;50.802;4.350;2023-08-21T12:04:43;9.05;;;1.45;;
22490;SDS011;11412;50.802;4.350;2023-08-21T12:07:09;4.85;;;1.30;;
22490;SDS011;11412;50.802;4.350;2023-08-21T12:09:36;3.35;;;1.23;;
22490;SDS011;11412;50.802;4.350;2023-08-21T12:12:01;3.80;;;1.10;;
22490;SDS011;11412;50.802;4.350;2023-08-21T12:14:28;2.20;;;1.20;;
22490;SDS011;11412;50.802;4.350;2023-08-21T12:16:54;2.45;;;1.20;;
22490;SDS011;11412;50.802;4.350;2023-08-21T12:19:23;6.32;;;1.45;;
22490;SDS011;11412;50.802;4.350;2023-08-21T12:21:49;3.67;;;1.00;;
22490;SDS011;11412;50.802;4.350;2023-08-21T12:24:16;1.88;;;1.10;;
22490;SDS011;11412;50.802;4.350;2023-08-21T12:26:42;3.28;;;1.10;;
22490;SDS011;11412;50.802;4.350;2023-08-21T12:29:08;3.42;;;1.20;;
22490;SDS011;11412;50.802;4.350;2023-08-21T12:31:33;4.10;;;1.60;;
22490;SDS011;11412;50.802;4.350;2023-08-21T12:33:59;2.95;;;1.48;;
22490;SDS011;11412;50.802;4.350;2023-08-21T12:36:25;4.30;;;1.33;;
22490;SDS011;11412;50.802;4.350;2023-08-21T12:38:50;5.40;;;1.42;;
22490;SDS011;11412;50.802;4.350;2023-08-21T12:41:16;3.47;;;1.50;;
22490;SDS011;11412;50.802;4.350;2023-08-21T12:43:42;6.30;;;1.92;;
22490;SDS011;11412;50.802;4.350;2023-08-21T12:46:07;4.55;;;1.40;;
22490;SDS011;11412;50.802;4.350;2023-08-21T12:48:33;1.10;;;1.00;;
22490;SDS011;11412;50.802;4.350;2023-08-21T12:50:59;3.33;;;1.27;;
22490;SDS011;11412;50.802;4.350;2023-08-21T12:53:24;2.13;;;1.00;;
22490;SDS011;11412;50.802;4.350;2023-08-21T12:55:50;3.67;;;1.40;;
22490;SDS011;11412;50.802;4.350;2023-08-21T12:58:15;4.45;;;1.40;;
22490;SDS011;11412;50.802;4.350;2023-08-21T13:00:41;6.25;;;1.38;;
22490;SDS011;11412;50.802;4.350;2023-08-21T13:03:07;4.95;;;1.30;;
22490;SDS011;11412;50.802;4.350;2023-08-21T13:05:33;1.98;;;1.05;;
22490;SDS011;11412;50.802;4.350;2023-08-21T13:07:59;3.65;;;1.30;;
22490;SDS011;11412;50.802;4.350;2023-08-21T13:10:25;2.15;;;1.17;;
22490;SDS011;11412;50.802;4.350;2023-08-21T13:12:51;4.30;;;1.00;;
22490;SDS011;11412;50.802;4.350;2023-08-21T13:15:17;2.15;;;1.20;;
22490;SDS011;11412;50.802;4.350;2023-08-21T13:17:42;3.05;;;1.23;;
22490;SDS011;11412;50.802;4.350;2023-08-21T13:20:08;4.20;;;1.63;;
22490;SDS011;11412;50.802;4.350;2023-08-21T13:25:18;3.92;;;1.40;;
22490;SDS011;11412;50.802;4.350;2023-08-21T13:27:45;4.53;;;1.10;;
22490;SDS011;11412;50.802;4.350;2023-08-21T13:30:11;2.08;;;1.17;;
22490;SDS011;11412;50.802;4.350;2023-08-21T13:32:38;2.00;;;1.27;;
22490;SDS011;11412;50.802;4.350;2023-08-21T13:35:03;2.17;;;1.35;;
22490;SDS011;11412;50.802;4.350;2023-08-21T13:37:34;3.40;;;1.42;;
22490;SDS011;11412;50.802;4.350;2023-08-21T13:40:00;1.90;;;1.30;;
22490;SDS011;11412;50.802;4.350;2023-08-21T13:42:34;1.70;;;1.20;;
22490;SDS011;11412;50.802;4.350;2023-08-21T13:45:02;2.55;;;1.38;;
22490;SDS011;11412;50.802;4.350;2023-08-21T13:47:28;0.98;;;0.93;;
22490;SDS011;11412;50.802;4.350;2023-08-21T13:49:54;1.63;;;1.10;;
22490;SDS011;11412;50.802;4.350;2023-08-21T13:52:20;1.20;;;1.10;;
22490;SDS011;11412;50.802;4.350;2023-08-21T13:54:45;1.92;;;1.38;;
22490;SDS011;11412;50.802;4.350;2023-08-21T13:57:12;1.90;;;1.10;;
22490;SDS011;11412;50.802;4.350;2023-08-21T13:59:37;0.90;;;0.90;;
22490;SDS011;11412;50.802;4.350;2023-08-21T14:02:03;0.90;;;0.80;;
22490;SDS011;11412;50.802;4.350;2023-08-21T14:04:29;1.75;;;1.00;;
22490;SDS011;11412;50.802;4.350;2023-08-21T14:06:57;0.90;;;0.82;;
22490;SDS011;11412;50.802;4.350;2023-08-21T14:09:23;1.58;;;1.02;;
22490;SDS011;11412;50.802;4.350;2023-08-21T14:11:48;0.85;;;0.80;;
22490;SDS011;11412;50.802;4.350;2023-08-21T14:14:14;1.98;;;0.85;;
22490;SDS011;11412;50.802;4.350;2023-08-21T14:16:40;2.92;;;0.95;;
22490;SDS011;11412;50.802;4.350;2023-08-21T14:19:05;0.88;;;0.88;;
22490;SDS011;11412;50.802;4.350;2023-08-21T14:21:31;1.80;;;1.00;;
22490;SDS011;11412;50.802;4.350;2023-08-21T14:23:56;3.10;;;1.10;;
22490;SDS011;11412;50.802;4.350;2023-08-21T14:26:22;1.92;;;0.90;;
22490;SDS011;11412;50.802;4.350;2023-08-21T14:28:48;3.42;;;1.00;;
22490;SDS011;11412;50.802;4.350;2023-08-21T14:31:16;2.10;;;0.93;;
22490;SDS011;11412;50.802;4.350;2023-08-21T14:33:42;3.33;;;0.80;;
22490;SDS011;11412;50.802;4.350;2023-08-21T14:36:08;1.15;;;0.68;;
22490;SDS011;11412;50.802;4.350;2023-08-21T14:38:34;2.38;;;0.75;;
22490;SDS011;11412;50.802;4.350;2023-08-21T14:40:59;2.05;;;1.00;;
22490;SDS011;11412;50.802;4.350;2023-08-21T14:43:25;0.95;;;0.75;;
22490;SDS011;11412;50.802;4.350;2023-08-21T14:45:51;2.65;;;0.90;;
22490;SDS011;11412;50.802;4.350;2023-08-21T14:48:17;1.52;;;0.93;;
22490;SDS011;11412;50.802;4.350;2023-08-21T14:50:42;1.73;;;0.60;;
22490;SDS011;11412;50.802;4.350;2023-08-21T14:53:08;1.15;;;0.63;;
22490;SDS011;11412;50.802;4.350;2023-08-21T14:55:34;1.05;;;0.80;;
22490;SDS011;11412;50.802;4.350;2023-08-21T14:58:00;3.33;;;1.02;;
22490;SDS011;11412;50.802;4.350;2023-08-21T15:00:32;0.80;;;0.52;;
22490;SDS011;11412;50.802;4.350;2023-08-21T15:02:58;2.95;;;0.77;;